• Join FlightAware (Why Join?)
  • Login
  • US Flag 
10:58PM EST


 

Airport Tracker/Info


-or-


 

Live Flight TrackerFlight Track Log ✈ BLS501 ✈ 04-May-2012 ✈ CYSB - CYTS

Flight Track Log - Related Links

Times and Time Zones

All times are in EDT time to prevent confusion due to time zone crossing. See the BLS501 flight status page for this flight to view local times or setup timezone preferences in your user account.

Time Position Orientation Groundspeed Altitude Reporting Facility
EDT Latitude Longitude Course Direction KTS MPH feet Rate Location/Type
06:01PM 46.6333 -80.7667 360° North 130 150 2,100  Level Toronto Center
06:02PM 46.6833 -80.7667 335° Northwest 170 196 4,000 1,800 Climbing Toronto Center
06:03PM 46.7333 -80.8000 347° North 180 207 5,800 1,800 Climbing Toronto Center
06:04PM 46.7833 -80.8167 347° North 190 219 7,700 1,680 Climbing Toronto Center
06:05PM 46.8333 -80.8333 347° North 180 207 9,200 1,380 Climbing Toronto Center
06:06PM 46.8833 -80.8500 336° Northwest 190 219 10,500 1,200 Climbing Toronto Center
06:07PM 46.9333 -80.8833 360° North 190 219 11,600 660 Climbing Toronto Center
06:08PM 47.0000 -80.8833 350° North 210 242 11,900 240 Climbing Toronto Center
06:09PM 47.0667 -80.9000 336° Northwest 230 265 12,100  Climbing Toronto Center
06:10PM 47.1167 -80.9333 350° North 250 288 11,900 -240 Descending Toronto Center
06:11PM 47.1833 -80.9500 341° North 250 288 11,700 -60 Descending Toronto Center
06:12PM 47.2500 -80.9833 350° North 250 288 11,800  Climbing Toronto Center
06:13PM 47.3167 -81.0000 350° North 250 288 11,800  Level Toronto Center
06:14PM 47.3833 -81.0167 350° North 250 288 11,900  Climbing Toronto Center
06:15PM 47.4500 -81.0333 345° North 250 288 11,900 -60 Level Toronto Center
06:16PM 47.5333 -81.0667 360° North 250 288 11,800  Descending Toronto Center
06:17PM 47.6000 -81.0667 350° North 250 288 11,900  Climbing Toronto Center
06:18PM 47.6667 -81.0833 341° North 250 288 11,800 -60 Descending Toronto Center
06:19PM 47.7333 -81.1167 341° North 250 288 11,800 -60 Level Toronto Center
06:20PM 47.8000 -81.1500 350° North 250 288 11,700  Descending Toronto Center
06:21PM 47.8667 -81.1667 360° North 250 288 11,900  Climbing Toronto Center
06:22PM 47.9333 -81.1667 345° North 250 288 11,800 -420 Descending Toronto Center
06:23PM 48.0167 -81.2000 345° North 260 299 11,100 -720 Descending Toronto Center